LEMR
43.25.83N 005.49.60W
IN73CK aprs.fi
zuletzt gehoert:
2021-06-12T11:30:06Z
zuerst gehoert:
2020-02-23T15:43:24Z

APRS Llanera [IN73CK], 0 Stunde(n), LEMR [13:38:45, 0s].
LEMR 43.25.83N 005.49.60WIN73CK 0.701km 331°NNW11:30:06ZAerodromo de la Morgal: LEAS 121100Z 08008KT 030V130 9999 FEW016 BKN021 19/16 Q1023 NOSIG=
LEGM 43.26.15N 005.49.84WIN73CK 1.386km 332°NNW11:30:05ZHelipuerto de La Morgal: LEAS 121100Z 08008KT 030V130 9999 FEW016 BKN021 19/16 Q1023 NOSIG=
EA1IN 43.25.16N 005.47.43WIN73CK 2.659km 104°ESE11:35:01ZMMDVM MMDVM HS Hat 434.7000/434.7000 CC1
LEHU 43.22.63N 005.49.57WIN73CJ 5.323km 183°S11:30:05ZHelipuerto del HUCA: LEAS 121100Z 08008KT 030V130 9999 FEW016 BKN021 19/16 Q1023 NOSIG=
ED1ZAU 43.23.04N 005.52.75WIN73BJ 6.457km 225°SW11:35:54ZRD625 438.5000/430.9000 CC1
EA1YR 43.22.09N 005.51.86WIN73BI 7.146km 208°SSW11:34:56ZMMDVM DVS 434.3500/434.3500 CC1
33D00 43.21.63N 005.51.13WIN73BI 7.553km 198°SSW11:01:52Z33-D-00 Protección Civil REMER / Delegación del Gobierno en Asturias
EB1CAM 43.21.36N 005.49.71WIN73CI 7.682km 184°S11:38:42ZEB1CAM por ahi(3EB1CAM-9)
EA1L 43.20.37N 005.51.13WIN73BI 9.778km 194°SSW11:30:09Zea1l@ure.es V=11.6V,T=??.?C
Wind 036°/006kn, Böen bis 012kn, Temp 22.78c, Regen 0.0mm, letzte 24h 0.0mm, seit 0h 0.0mm, Baro 1020.7h, Hum: 80%(2EA1L-13)
ED1ZAY 43.29.47N 005.56.54WIN73AL 12.164km 307°NW11:35:52ZRD625 438.3000/430.7000 CC1
ED1ZAE 43.27.99N 005.40.54WIN73DL 12.720km 69°ENE11:25:46ZWIDE3-3 ESAS3-3 IN73DL WWW.EA1URG.ORG(3ED1ZAE-3)
ED1ZAS 43.27.52N 005.40.17WIN73DL 12.912km 73°ENE11:35:47ZRD985 438.2250/430.6250 CC1
EA1AHA 43.32.74N 005.54.36WIN73BN 15.015km 333°NNW11:30:58ZWind 135°/011kn, Böen bis 014kn, Temp 21.11c, Regen 0.0mm, letzte 24h 0.0mm, seit 0h 0.0mm, Baro 1024.3h, Hum: 69%(3EA1AHA-13)
MMDVM MMDVM HS Hat 432.0000/432.0000 CC1(2EA1AHA)
EB1TK 43.32.22N 005.42.32WIN73DM 15.659km 37°NE11:35:40ZWind 048°/006kn, Böen bis 013kn, Temp 19.44c, Regen 0.0mm, letzte 24h 0.0mm, seit 0h 0.0mm, Baro 1026.1h, Hum: 83%(3EB1TK-13)
EA1IEJ 43.31.81N 005.40.64WIN73DM 16.574km 45°NE11:32:37ZMMDVM MMDVM HS Hat 438.8500/438.8500 CC6
EA1DZR 43.31.47N 005.40.00WIN73DM 16.749km 49°NE11:35:21ZMMDVM DVS 434.3500/434.3500 CC1
EA1IZV 43.33.25N 005.55.92WIN73AN 16.862km 328°NNW11:00:04ZEn proceso...
LEEL 43.32.98N 005.41.71WIN73DN 17.254km 36°NE11:30:06ZHelipuerto de El Musel: LEAS 121100Z 08008KT 030V130 9999 FEW016 BKN021 19/16 Q1023 NOSIG=
EA1FLQ 43.22.00N 005.36.35WIN73EI 18.665km 110°ESE11:31:01ZMMDVM DVMega 439.9750/439.9750 CC5
EB1GEM 43.30.00N 005.36.07WIN73EM 19.733km 65°ENE11:27:41ZWX3in1Plus2.0 U=13.3V,T=??.?C/??.?F(3EB1GEM-3)
EA1DHE 43.33.98N 005.58.57WIN73AN 20.022km 322°NW11:35:08ZMMDVM DVS 434.3500/434.3500 CC1
EA1IMW 43.14.36N 005.46.93WIN73CF 20.897km 171°S11:34:44ZGRUPO RADIO GALENA (GRG) 433.4500/433.4500 CC1
EA1JBL 43.12.28N 005.47.42WIN73CE 24.612km 174°S11:34:28ZMMDVM DVMega 435.3000/435.3000 CC1
EA1HWA 43.12.00N 005.47.40WIN73CE 25.150km 174°S11:34:18ZMMDVM MMDVM HS Hat 433.4500/433.4500 CC1
EA1HJA 43.28.10N 005.30.45WIN73FL 25.892km 79°E11:32:38Z] EA1HJA@QSL.NET=(3EA1HJA-9)
IN73FL WX3IN1+ 2.0 - V=13.9V,TX TEMP=44.9C(2EA1HJA)
IN73FL WX3IN1+ 2.0 - V=13.3V,TX TEMP=34.2C(2EA1HJA-2)
EA1RCG 43.09.45N 005.49.78WIN73CD 29.723km 181°S11:34:33ZGRUPO RADIO GALENA (GRG) 433.4500/433.4500 CC1
EA1JAY 43.29.33N 005.26.78WIN73GL 31.194km 77°ENE11:30:08Z434.525MHz Nodo TETRA DMO(3EA1JAY-4)
EA1JAY(2EA1JAY-2)
EA1FHR 43.28.72N 005.26.41WIN73GL 31.430km 79°E11:32:34ZMMDVM MMDVM HS Hat 439.1500/439.1500 CC1
EA1HWD 43.28.96N 005.26.30WIN73GL 31.675km 78°ENE11:34:07Z144.575FM Local frecuency VHF. 434.2500/434.2500 CC1
ED1ZAD 43.07.90N 005.38.52WIN73ED 35.715km 156°SSE11:29:13ZED1ZAD-3 APRS Digi/Igate(3ED1ZAD-3)
EC1KV 43.34.01N 006.16.01WIN63UN 39.141km 294°WNW11:30:20Z VOLT.=13.6 V - TEMP.=??.? C(3EC1KV-1)
EA1JBE 43.30.90N 005.16.15WIN73IM 45.767km 77°ENE11:15:05Z145.750MHz P. Máx.: 10W / QRV R6(3EA1JBE-9)
ED1ZAD-3 APRS Digi/Igate(2EA1JBE-13)
MAIN QTH http://qrz.com/db/ea1jbe(2EA1JBE-1)
LETN 43.20.05N 006.22.69WIN63TI 46.022km 258°WSW11:30:06ZAerodromo de La Curiscada (Tineo): LEAS 121100Z 08008KT 030V130 9999 FEW016 BKN021 19/16 Q1023 NOSIG=
EB1IOW 43.28.73N 005.13.75WIN73JL 48.276km 83°E11:30:37ZMMDVM MMDVM HS Hat 430.5000/430.5000 CC1

aprs.pl 5.0.011w DL3EL © 2006-2021 [453492]